Time;durP1;ratioP1;P1;durP2;ratioP2;P2;SDS_P1;SDS_P2;PMS_P1;PMS_P2;Temp;Humidity;BMP_temperature;BMP_pressure;BME280_temperature;BME280_humidity;BME280_pressure;Samples;Min_cycle;Max_cycle;Signal;HPM_P1;HPM_P2
2023/05/20 00:01:42;;;;;;;2.13;0.90;;;14.30;99.90;;;;;;5117910;28;20712;-58
2023/05/20 00:04:09;;;;;;;1.30;0.93;;;14.40;99.90;;;;;;5115989;28;20424;-58
2023/05/20 00:06:36;;;;;;;2.30;0.90;;;14.30;99.90;;;;;;5116856;28;20431;-57
2023/05/20 00:09:04;;;;;;;1.20;0.90;;;14.30;99.90;;;;;;5117115;28;20446;-57
2023/05/20 00:11:31;;;;;;;1.70;0.80;;;14.30;99.90;;;;;;5116653;28;20438;-57
2023/05/20 00:13:58;;;;;;;1.50;0.90;;;14.20;99.90;;;;;;5117662;28;20742;-57
2023/05/20 00:16:25;;;;;;;1.40;0.90;;;14.30;99.90;;;;;;5116162;28;20432;-57
2023/05/20 00:18:52;;;;;;;1.48;1.05;;;14.30;99.90;;;;;;5117521;28;20428;-57
2023/05/20 00:21:19;;;;;;;1.63;0.90;;;14.30;99.90;;;;;;5116762;28;20416;-57
2023/05/20 00:23:46;;;;;;;1.25;0.90;;;14.30;99.90;;;;;;5116176;28;20424;-58
2023/05/20 00:26:15;;;;;;;2.55;1.00;;;14.30;99.90;;;;;;5117600;28;20416;-57
2023/05/20 00:28:42;;;;;;;1.90;1.00;;;14.30;99.90;;;;;;5116915;28;20735;-57
2023/05/20 00:31:09;;;;;;;1.05;0.93;;;14.30;99.90;;;;;;5116783;28;20412;-57
2023/05/20 00:33:36;;;;;;;1.60;1.00;;;14.30;99.90;;;;;;5117153;28;20485;-57
2023/05/20 00:36:04;;;;;;;1.55;1.10;;;14.30;99.90;;;;;;5116003;28;20428;-57
2023/05/20 00:38:31;;;;;;;1.30;0.90;;;14.20;99.90;;;;;;5115548;28;20728;-57
2023/05/20 00:40:58;;;;;;;1.40;1.00;;;14.30;99.90;;;;;;5116598;28;20827;-57
2023/05/20 00:43:26;;;;;;;1.50;1.00;;;14.30;99.90;;;;;;5115701;28;20428;-57
2023/05/20 00:45:54;;;;;;;1.75;1.10;;;14.20;99.90;;;;;;5114151;28;20847;-57
2023/05/20 00:48:21;;;;;;;1.50;1.08;;;14.20;99.90;;;;;;5113839;28;20415;-57
2023/05/20 00:50:49;;;;;;;1.80;1.00;;;14.30;99.90;;;;;;5111203;28;20424;-57
2023/05/20 00:53:17;;;;;;;1.73;1.10;;;14.30;99.90;;;;;;5113641;28;20481;-58
2023/05/20 00:55:44;;;;;;;1.50;1.00;;;14.20;99.90;;;;;;5113951;28;20460;-58
2023/05/20 00:58:12;;;;;;;1.38;1.00;;;14.20;99.90;;;;;;5113740;28;20416;-57
2023/05/20 01:00:41;;;;;;;1.40;1.00;;;14.20;99.90;;;;;;5115687;28;20420;-58
2023/05/20 01:03:08;;;;;;;3.42;1.00;;;14.30;99.90;;;;;;5115880;28;20727;-56
2023/05/20 01:05:35;;;;;;;1.42;1.10;;;14.20;99.90;;;;;;5115933;28;20404;-58
2023/05/20 01:08:02;;;;;;;1.90;1.00;;;14.20;99.90;;;;;;5116439;28;20455;-58
2023/05/20 01:10:31;;;;;;;1.70;1.10;;;14.10;99.90;;;;;;5116002;28;20431;-58
2023/05/20 01:13:02;;;;;;;2.90;1.10;;;14.10;99.90;;;;;;5116325;28;20416;-58
2023/05/20 01:15:30;;;;;;;1.38;1.08;;;14.10;99.90;;;;;;5116439;28;20435;-57
2023/05/20 01:18:04;;;;;;;1.38;1.10;;;14.10;99.90;;;;;;5116344;28;20750;-58
2023/05/20 01:20:33;;;;;;;1.30;1.00;;;14.20;99.90;;;;;;5116005;28;20839;-58
2023/05/20 01:23:02;;;;;;;1.10;0.90;;;14.20;99.90;;;;;;5115427;28;20468;-57
2023/05/20 01:25:29;;;;;;;1.50;1.20;;;14.20;99.90;;;;;;5115672;28;20728;-57
2023/05/20 01:27:57;;;;;;;2.50;1.10;;;14.10;99.90;;;;;;5115684;28;20412;-58
2023/05/20 01:30:29;;;;;;;1.87;1.00;;;14.10;99.90;;;;;;5116176;28;20428;-58
2023/05/20 01:33:01;;;;;;;3.23;1.10;;;14.10;99.90;;;;;;5116520;28;20435;-57
2023/05/20 01:35:29;;;;;;;1.90;1.00;;;14.10;99.90;;;;;;5116077;28;20439;-58
2023/05/20 01:37:58;;;;;;;1.55;0.90;;;14.10;99.90;;;;;;5115695;28;20452;-57
2023/05/20 01:40:28;;;;;;;1.30;1.00;;;14.10;99.90;;;;;;5116242;28;20431;-58
2023/05/20 01:42:56;;;;;;;1.10;0.90;;;14.10;99.90;;;;;;5115793;28;20420;-58
2023/05/20 01:45:25;;;;;;;1.30;1.00;;;14.20;99.90;;;;;;5115407;28;20423;-57
2023/05/20 01:47:52;;;;;;;2.50;1.00;;;14.20;99.90;;;;;;5115264;28;20964;-58
2023/05/20 01:50:19;;;;;;;2.10;1.00;;;14.20;99.90;;;;;;5115390;28;20428;-58
2023/05/20 01:52:46;;;;;;;2.00;1.00;;;14.20;99.90;;;;;;5115522;28;20416;-58
2023/05/20 01:55:13;;;;;;;1.40;1.00;;;14.30;99.90;;;;;;5115105;28;20428;-59
2023/05/20 01:57:42;;;;;;;1.47;1.00;;;14.30;99.90;;;;;;5114274;28;20431;-58
2023/05/20 02:00:09;;;;;;;1.27;0.95;;;14.20;99.90;;;;;;5114744;28;20419;-58
2023/05/20 02:02:36;;;;;;;1.40;0.90;;;14.20;99.90;;;;;;5115150;28;20915;-58
2023/05/20 02:05:04;;;;;;;1.80;1.00;;;14.20;99.90;;;;;;5114959;28;20432;-57
2023/05/20 02:07:31;;;;;;;1.58;1.00;;;14.20;99.90;;;;;;5114796;28;20523;-57
2023/05/20 02:09:58;;;;;;;1.30;1.02;;;14.30;99.90;;;;;;5115381;28;20427;-57
2023/05/20 02:12:25;;;;;;;1.88;0.93;;;14.30;99.90;;;;;;5115192;28;20724;-57
2023/05/20 02:14:54;;;;;;;2.60;1.00;;;14.30;99.90;;;;;;5115457;28;20424;-58
2023/05/20 02:17:21;;;;;;;3.50;1.00;;;14.20;99.90;;;;;;5115131;28;20412;-57
2023/05/20 02:19:48;;;;;;;2.42;1.02;;;14.20;99.90;;;;;;5114935;28;20501;-58
2023/05/20 02:22:15;;;;;;;1.50;1.10;;;14.10;99.90;;;;;;5114062;28;20674;-58
2023/05/20 02:24:43;;;;;;;1.20;1.00;;;14.10;99.90;;;;;;5115392;28;20427;-58
2023/05/20 02:27:10;;;;;;;2.70;1.00;;;14.10;99.90;;;;;;5115239;28;20840;-57
2023/05/20 02:29:37;;;;;;;1.40;1.10;;;14.10;99.90;;;;;;5115016;28;20424;-58
2023/05/20 02:32:06;;;;;;;1.27;1.00;;;13.90;99.90;;;;;;5115376;28;20506;-58
2023/05/20 02:34:33;;;;;;;2.30;1.10;;;13.80;99.90;;;;;;5116043;28;20731;-58
2023/05/20 02:37:00;;;;;;;2.92;1.00;;;13.70;99.90;;;;;;5119009;28;20435;-58
2023/05/20 02:39:28;;;;;;;1.90;1.10;;;13.70;99.90;;;;;;5119827;28;20437;-58
2023/05/20 02:41:55;;;;;;;1.30;1.00;;;13.70;99.90;;;;;;5119484;28;20416;-58
2023/05/20 02:44:22;;;;;;;1.40;1.10;;;13.70;99.90;;;;;;5118929;28;20416;-58
2023/05/20 02:46:49;;;;;;;1.40;1.10;;;13.60;99.90;;;;;;5119027;28;20420;-57
2023/05/20 02:49:17;;;;;;;1.50;1.10;;;13.60;99.90;;;;;;5119291;28;20463;-58
2023/05/20 02:51:44;;;;;;;1.30;1.10;;;13.50;99.90;;;;;;5118797;28;20435;-57
2023/05/20 02:54:11;;;;;;;1.70;1.20;;;13.50;99.90;;;;;;5119216;28;20431;-57
2023/05/20 02:56:38;;;;;;;1.70;1.10;;;13.60;99.90;;;;;;5118934;28;20435;-57
2023/05/20 02:59:06;;;;;;;1.35;1.10;;;13.60;99.90;;;;;;5118958;28;20507;-57
2023/05/20 03:01:34;;;;;;;1.27;1.00;;;13.50;99.90;;;;;;5118541;28;20416;-58
2023/05/20 03:04:01;;;;;;;1.40;1.15;;;13.50;99.90;;;;;;5118641;28;20434;-58
2023/05/20 03:06:30;;;;;;;2.50;1.10;;;13.40;99.90;;;;;;5118965;28;20416;-57
2023/05/20 03:08:58;;;;;;;2.22;1.08;;;13.40;99.90;;;;;;5118673;28;20424;-57
2023/05/20 03:11:25;;;;;;;2.35;1.10;;;13.40;99.90;;;;;;5118893;28;20512;-57
2023/05/20 03:13:52;;;;;;;1.42;1.30;;;13.40;99.90;;;;;;5118768;28;20428;-56
2023/05/20 03:16:19;;;;;;;1.50;1.17;;;13.40;99.90;;;;;;5118637;28;20432;-57
2023/05/20 03:18:46;;;;;;;1.80;1.20;;;13.30;99.90;;;;;;5118519;28;20424;-58
2023/05/20 03:21:13;;;;;;;1.60;1.10;;;13.30;99.90;;;;;;5118276;28;20844;-57
2023/05/20 03:23:42;;;;;;;1.50;1.00;;;13.30;99.90;;;;;;5118490;28;20434;-57
2023/05/20 03:26:09;;;;;;;1.35;1.10;;;13.30;99.90;;;;;;5118452;28;20420;-58
2023/05/20 03:28:36;;;;;;;1.20;1.10;;;13.40;99.90;;;;;;5118249;28;20428;-58
2023/05/20 03:31:03;;;;;;;1.30;1.00;;;13.40;99.90;;;;;;5118220;28;20423;-58
2023/05/20 03:33:32;;;;;;;1.40;1.00;;;13.40;99.90;;;;;;5118032;28;20696;-57
2023/05/20 03:35:59;;;;;;;1.35;1.00;;;13.40;99.90;;;;;;5117656;28;20420;-58
2023/05/20 03:38:27;;;;;;;1.80;1.20;;;13.40;99.90;;;;;;5117246;28;20428;-58
2023/05/20 03:40:55;;;;;;;2.00;1.10;;;13.40;99.90;;;;;;5118114;28;20462;-58
2023/05/20 03:43:24;;;;;;;2.70;1.10;;;13.30;99.90;;;;;;5117998;28;20804;-57
2023/05/20 03:45:51;;;;;;;1.30;1.00;;;13.30;99.90;;;;;;5117181;28;20478;-58
2023/05/20 03:48:19;;;;;;;1.40;1.10;;;13.30;99.90;;;;;;5118005;28;20835;-58
2023/05/20 03:50:46;;;;;;;1.50;1.20;;;13.30;99.90;;;;;;5116322;28;20420;-58
2023/05/20 03:53:13;;;;;;;2.95;1.85;;;13.40;99.90;;;;;;5117332;28;20412;-58
2023/05/20 03:55:40;;;;;;;1.70;1.10;;;13.30;99.90;;;;;;5117686;28;20428;-58
2023/05/20 03:58:08;;;;;;;1.50;1.10;;;13.30;99.90;;;;;;5116945;28;20451;-58
2023/05/20 04:00:35;;;;;;;2.10;1.10;;;13.20;99.90;;;;;;5117296;28;20420;-58
2023/05/20 04:03:03;;;;;;;2.08;1.20;;;13.20;99.90;;;;;;5116538;28;20451;-58
2023/05/20 04:05:30;;;;;;;2.10;1.20;;;13.30;99.90;;;;;;5117012;28;20499;-58
2023/05/20 04:07:57;;;;;;;1.50;1.15;;;13.30;99.90;;;;;;5117208;28;20412;-58
2023/05/20 04:10:24;;;;;;;2.20;1.10;;;13.30;99.90;;;;;;5117458;28;20459;-58
2023/05/20 04:12:52;;;;;;;1.50;1.10;;;13.40;99.90;;;;;;5117095;28;20424;-58
2023/05/20 04:15:22;;;;;;;1.40;1.20;;;13.50;99.90;;;;;;5116789;28;20439;-58
2023/05/20 04:17:51;;;;;;;1.40;1.10;;;13.50;99.90;;;;;;5117236;28;20424;-58
2023/05/20 04:20:18;;;;;;;2.00;1.10;;;13.60;99.90;;;;;;5117230;28;20431;-57
2023/05/20 04:22:47;;;;;;;1.23;1.00;;;13.60;99.90;;;;;;5117310;28;20769;-58
2023/05/20 04:25:14;;;;;;;1.40;1.10;;;13.70;99.90;;;;;;5117206;28;20428;-57
2023/05/20 04:27:41;;;;;;;2.50;1.10;;;13.70;99.90;;;;;;5116985;28;20422;-57
2023/05/20 04:30:09;;;;;;;1.70;1.10;;;13.80;99.90;;;;;;5116696;28;20431;-57
2023/05/20 04:32:37;;;;;;;1.90;1.10;;;13.80;99.90;;;;;;5117053;28;20473;-58
2023/05/20 04:35:07;;;;;;;1.65;1.00;;;13.80;99.90;;;;;;5117009;28;20424;-58
2023/05/20 04:37:36;;;;;;;1.80;1.10;;;13.90;99.90;;;;;;5117121;28;20428;-58
2023/05/20 04:40:05;;;;;;;2.50;1.00;;;13.90;99.90;;;;;;5117086;28;21030;-57
2023/05/20 04:42:32;;;;;;;1.90;1.02;;;14.00;99.90;;;;;;5117119;28;20412;-58
2023/05/20 04:45:00;;;;;;;1.25;1.10;;;14.10;99.90;;;;;;5116912;28;20424;-58
2023/05/20 04:47:28;;;;;;;1.60;1.00;;;14.10;99.90;;;;;;5116883;28;20420;-58
2023/05/20 04:49:57;;;;;;;1.30;1.00;;;14.10;99.90;;;;;;5116567;28;20460;-57
2023/05/20 04:52:24;;;;;;;1.75;1.10;;;14.20;99.90;;;;;;5116678;28;20508;-59
2023/05/20 04:54:51;;;;;;;1.35;1.20;;;14.20;99.90;;;;;;5116584;28;20435;-58
2023/05/20 04:57:19;;;;;;;1.20;0.90;;;14.10;99.90;;;;;;5116222;28;20435;-58
2023/05/20 04:59:47;;;;;;;2.10;1.10;;;14.00;99.90;;;;;;5116166;28;20424;-58
2023/05/20 05:02:14;;;;;;;1.98;1.20;;;14.00;99.90;;;;;;5116139;28;20428;-57
2023/05/20 05:04:41;;;;;;;1.40;1.20;;;14.00;99.90;;;;;;5116039;28;20911;-58
2023/05/20 05:07:09;;;;;;;1.88;1.02;;;14.10;99.90;;;;;;5116395;28;20951;-57
2023/05/20 05:09:36;;;;;;;1.20;1.10;;;14.10;99.90;;;;;;5116307;28;20883;-58
2023/05/20 05:12:04;;;;;;;1.90;1.30;;;14.20;99.90;;;;;;5116311;28;20743;-58
2023/05/20 05:14:31;;;;;;;1.80;1.10;;;14.30;99.90;;;;;;5116161;28;20424;-58
2023/05/20 05:16:58;;;;;;;1.70;1.00;;;14.30;99.90;;;;;;5114236;28;20835;-57
2023/05/20 05:19:25;;;;;;;1.87;1.10;;;14.30;99.90;;;;;;5114436;28;20419;-57
2023/05/20 05:21:52;;;;;;;1.60;1.20;;;14.30;99.90;;;;;;5114605;28;20465;-57
2023/05/20 05:24:20;;;;;;;1.65;1.30;;;14.40;99.90;;;;;;5113861;28;20424;-55
2023/05/20 05:26:47;;;;;;;3.35;1.20;;;14.50;99.90;;;;;;5114555;28;20412;-57
2023/05/20 05:29:14;;;;;;;1.63;1.10;;;14.40;99.90;;;;;;5113852;28;20420;-56
2023/05/20 05:31:41;;;;;;;1.50;1.20;;;14.40;99.90;;;;;;5114433;28;20470;-54
2023/05/20 05:34:08;;;;;;;1.70;1.20;;;14.40;99.90;;;;;;5114046;28;20777;-54
2023/05/20 05:36:35;;;;;;;1.40;1.10;;;14.50;99.90;;;;;;5112192;28;20424;-50
2023/05/20 05:39:02;;;;;;;1.50;1.00;;;14.50;99.90;;;;;;5113107;28;20424;-53
2023/05/20 05:41:31;;;;;;;1.60;1.20;;;14.60;99.90;;;;;;5114835;28;20428;-53
2023/05/20 05:43:59;;;;;;;2.60;1.20;;;14.70;99.90;;;;;;5114923;28;20431;-55
2023/05/20 05:46:26;;;;;;;2.00;1.17;;;14.70;99.90;;;;;;5114363;28;20766;-54
2023/05/20 05:48:53;;;;;;;1.70;1.10;;;14.80;99.90;;;;;;5113525;28;20459;-51
2023/05/20 05:51:20;;;;;;;1.42;1.10;;;14.90;99.90;;;;;;5113271;28;20492;-52
2023/05/20 05:53:47;;;;;;;1.55;1.10;;;15.00;99.90;;;;;;5113287;28;20878;-53
2023/05/20 05:56:14;;;;;;;1.90;1.40;;;15.00;99.90;;;;;;5113352;28;20412;-53
2023/05/20 05:58:42;;;;;;;1.33;1.20;;;15.10;99.90;;;;;;5112927;28;20469;-51
2023/05/20 06:01:10;;;;;;;1.80;1.20;;;15.20;99.90;;;;;;5113718;28;20519;-54
2023/05/20 06:03:37;;;;;;;1.40;1.20;;;15.20;99.90;;;;;;5115077;28;20531;-53
2023/05/20 06:06:04;;;;;;;2.65;1.10;;;15.20;99.90;;;;;;5115015;28;20412;-54
2023/05/20 06:08:31;;;;;;;2.30;1.17;;;15.30;99.90;;;;;;5112951;28;20510;-53
2023/05/20 06:10:58;;;;;;;1.40;1.10;;;15.40;99.90;;;;;;5113909;28;20690;-55
2023/05/20 06:13:25;;;;;;;2.00;1.30;;;15.50;99.90;;;;;;5113379;28;20715;-52
2023/05/20 06:15:54;;;;;;;1.83;1.20;;;15.30;99.90;;;;;;5113059;28;20412;-51
2023/05/20 06:18:21;;;;;;;1.48;1.20;;;15.30;99.90;;;;;;5112555;28;20440;-55
2023/05/20 06:20:55;;;;;;;1.85;1.13;;;15.50;99.90;;;;;;5111884;28;20435;-53
2023/05/20 06:23:22;;;;;;;1.60;1.10;;;15.60;99.90;;;;;;5112688;28;20901;-55
2023/05/20 06:25:50;;;;;;;1.52;1.10;;;15.60;99.90;;;;;;5113354;28;20416;-53
2023/05/20 06:28:17;;;;;;;1.73;1.20;;;15.60;99.90;;;;;;5108704;28;20425;-55
2023/05/20 06:30:44;;;;;;;1.70;1.20;;;15.70;99.90;;;;;;5102569;28;20422;-54
2023/05/20 06:33:13;;;;;;;1.98;1.40;;;15.90;99.90;;;;;;5094455;28;20413;-56
2023/05/20 06:35:40;;;;;;;1.50;1.20;;;15.80;99.90;;;;;;5094821;28;20424;-55
2023/05/20 06:38:07;;;;;;;2.33;1.23;;;15.80;99.90;;;;;;5093753;28;20430;-55
2023/05/20 06:40:34;;;;;;;1.80;1.20;;;16.00;99.90;;;;;;5091859;28;20414;-54
2023/05/20 06:43:01;;;;;;;1.65;1.13;;;15.90;99.90;;;;;;5093066;28;20463;-52
2023/05/20 06:45:28;;;;;;;1.75;1.20;;;16.00;99.90;;;;;;5092916;28;20410;-58
2023/05/20 06:47:55;;;;;;;1.50;1.20;;;16.00;99.90;;;;;;5092804;28;20708;-55
2023/05/20 06:50:24;;;;;;;2.50;1.20;;;16.00;99.90;;;;;;5093022;28;20730;-53
2023/05/20 06:52:51;;;;;;;2.08;1.20;;;16.10;99.90;;;;;;5092350;28;21013;-52
2023/05/20 06:55:18;;;;;;;1.58;1.20;;;16.30;99.90;;;;;;5092724;28;20426;-51
2023/05/20 06:57:45;;;;;;;1.75;1.23;;;16.50;99.90;;;;;;5092200;28;20437;-55
2023/05/20 07:00:13;;;;;;;2.85;1.17;;;16.70;99.90;;;;;;5092328;28;20433;-51
2023/05/20 07:02:40;;;;;;;1.50;1.30;;;16.80;99.90;;;;;;5091803;28;20535;-55
2023/05/20 07:05:08;;;;;;;3.15;1.30;;;16.80;99.90;;;;;;5091376;28;20440;-52
2023/05/20 07:07:37;;;;;;;1.52;1.30;;;16.80;99.90;;;;;;5091503;28;20421;-53
2023/05/20 07:10:04;;;;;;;1.70;1.30;;;16.60;99.90;;;;;;5093176;28;20433;-54
2023/05/20 07:12:32;;;;;;;1.63;1.30;;;16.50;99.90;;;;;;5093403;28;20432;-52
2023/05/20 07:14:59;;;;;;;1.55;1.20;;;16.60;99.90;;;;;;5093785;28;20422;-54
2023/05/20 07:17:26;;;;;;;1.90;1.30;;;16.70;99.90;;;;;;5094091;28;20426;-52
2023/05/20 07:19:53;;;;;;;1.50;1.20;;;16.60;99.90;;;;;;5093736;28;20823;-54
2023/05/20 07:22:20;;;;;;;2.50;1.30;;;16.70;99.90;;;;;;5097434;28;20425;-54
2023/05/20 07:24:49;;;;;;;1.60;1.30;;;16.70;99.90;;;;;;5097734;28;20435;-56
2023/05/20 07:27:16;;;;;;;1.60;1.30;;;16.70;99.90;;;;;;5097344;28;20413;-55
2023/05/20 07:29:43;;;;;;;1.60;1.50;;;16.90;99.90;;;;;;5097892;28;20429;-55
2023/05/20 07:32:10;;;;;;;1.50;1.20;;;16.90;99.90;;;;;;5097874;28;20421;-55
2023/05/20 07:34:37;;;;;;;1.40;1.20;;;17.00;99.90;;;;;;5096143;28;20491;-54
2023/05/20 07:37:04;;;;;;;1.85;1.30;;;17.00;99.90;;;;;;5096489;28;20437;-55
2023/05/20 07:39:32;;;;;;;1.70;1.30;;;16.80;99.90;;;;;;5096794;28;20642;-54
2023/05/20 07:42:00;;;;;;;2.40;1.60;;;16.90;99.90;;;;;;5096692;28;20433;-55
2023/05/20 07:44:27;;;;;;;1.42;1.13;;;17.20;99.90;;;;;;5096177;28;20433;-53
2023/05/20 07:46:54;;;;;;;2.20;1.30;;;17.30;99.90;;;;;;5108014;28;20431;-53
2023/05/20 07:49:22;;;;;;;2.30;1.20;;;17.50;99.90;;;;;;5116119;28;20424;-56
2023/05/20 07:51:49;;;;;;;1.63;1.27;;;17.50;99.90;;;;;;5117409;28;20919;-53
2023/05/20 07:54:16;;;;;;;2.10;1.30;;;17.70;99.90;;;;;;5116443;28;20438;-53
2023/05/20 07:56:43;;;;;;;2.00;1.50;;;17.90;99.90;;;;;;5116324;28;20420;-52
2023/05/20 07:59:11;;;;;;;1.50;1.20;;;18.00;99.90;;;;;;5116550;28;20424;-54
2023/05/20 08:01:41;;;;;;;1.50;1.13;;;18.10;99.90;;;;;;5117012;28;20412;-57
2023/05/20 08:04:08;;;;;;;3.10;1.20;;;18.30;99.90;;;;;;5116850;28;20424;-57
2023/05/20 08:06:35;;;;;;;1.50;1.10;;;18.50;99.90;;;;;;5116985;28;20423;-57
2023/05/20 08:09:03;;;;;;;1.80;1.05;;;18.50;99.90;;;;;;5117189;28;20439;-56
2023/05/20 08:11:30;;;;;;;1.80;1.20;;;18.50;99.90;;;;;;5117143;28;20420;-57
2023/05/20 08:13:57;;;;;;;1.50;1.10;;;18.50;99.90;;;;;;5117144;28;20428;-55
2023/05/20 08:16:26;;;;;;;1.90;1.20;;;18.60;99.90;;;;;;5114881;28;20416;-54
2023/05/20 08:18:53;;;;;;;2.60;1.40;;;18.60;99.90;;;;;;5115566;28;20455;-55
2023/05/20 08:21:20;;;;;;;2.00;1.30;;;18.80;99.90;;;;;;5113019;28;20443;-56
2023/05/20 08:23:47;;;;;;;2.03;1.20;;;18.80;99.90;;;;;;5111960;28;20436;-54
2023/05/20 08:26:14;;;;;;;1.92;1.17;;;18.70;99.90;;;;;;5102454;27;20443;-55
2023/05/20 08:28:41;;;;;;;1.90;1.40;;;18.80;99.90;;;;;;5110521;28;20432;-56
2023/05/20 08:31:08;;;;;;;1.90;1.30;;;18.80;99.90;;;;;;5110396;28;20712;-54
2023/05/20 08:33:37;;;;;;;2.63;1.35;;;18.70;99.90;;;;;;5111188;28;20836;-54
2023/05/20 08:36:05;;;;;;;1.50;1.20;;;18.30;99.90;;;;;;5111012;28;20439;-54
2023/05/20 08:38:32;;;;;;;1.90;1.20;;;18.30;99.90;;;;;;5111350;28;20556;-54
2023/05/20 08:40:59;;;;;;;2.40;1.30;;;18.40;99.90;;;;;;5114641;28;20412;-54
2023/05/20 08:43:27;;;;;;;1.60;1.30;;;18.30;99.90;;;;;;5115657;28;20911;-54
2023/05/20 08:45:54;;;;;;;1.40;1.30;;;18.50;99.90;;;;;;5116745;28;20424;-56
2023/05/20 08:48:23;;;;;;;1.70;1.40;;;18.50;99.90;;;;;;5115370;28;20431;-54
2023/05/20 08:50:52;;;;;;;1.70;1.30;;;18.70;99.90;;;;;;5111309;28;20867;-55
2023/05/20 08:53:22;;;;;;;1.65;1.20;;;18.60;99.90;;;;;;5105182;28;20442;-56
2023/05/20 08:55:53;;;;;;;1.60;1.10;;;18.90;99.90;;;;;;5108942;28;20428;-56
2023/05/20 08:58:22;;;;;;;1.48;1.20;;;19.20;99.90;;;;;;5114128;28;20436;-56
2023/05/20 09:00:49;;;;;;;2.40;1.60;;;19.50;99.90;;;;;;5112537;28;20432;-56
2023/05/20 09:03:19;;;;;;;1.77;1.20;;;19.40;99.90;;;;;;5115651;28;20435;-53
2023/05/20 09:05:46;;;;;;;1.52;1.30;;;19.30;99.90;;;;;;5115194;28;20421;-56
2023/05/20 09:08:14;;;;;;;1.50;1.30;;;19.30;99.90;;;;;;5115115;28;20420;-56
2023/05/20 09:10:42;;;;;;;1.75;1.38;;;19.50;99.90;;;;;;5112809;28;20428;-54
2023/05/20 09:13:10;;;;;;;2.13;1.27;;;19.30;99.90;;;;;;5115211;28;20832;-56
2023/05/20 09:15:39;;;;;;;2.05;1.60;;;19.10;99.90;;;;;;5104063;28;20747;-57
2023/05/20 09:18:07;;;;;;;1.60;1.30;;;19.20;99.90;;;;;;5113167;28;20428;-56
2023/05/20 09:20:36;;;;;;;1.55;1.20;;;19.50;99.90;;;;;;5112155;28;20790;-56
2023/05/20 09:23:06;;;;;;;2.60;1.50;;;19.60;99.90;;;;;;5113858;28;20438;-52
2023/05/20 09:25:35;;;;;;;2.30;1.30;;;19.70;99.90;;;;;;5095700;28;20432;-56
2023/05/20 09:28:06;;;;;;;1.90;1.30;;;19.70;99.90;;;;;;5103107;28;20500;-57
2023/05/20 09:30:33;;;;;;;1.40;1.20;;;19.60;99.90;;;;;;5093082;28;20471;-56
2023/05/20 09:33:03;;;;;;;1.80;1.20;;;19.70;99.90;;;;;;5098024;28;20432;-58
2023/05/20 09:35:31;;;;;;;1.60;1.40;;;19.80;99.90;;;;;;5112743;28;20433;-55
2023/05/20 09:37:58;;;;;;;2.30;1.30;;;19.70;99.90;;;;;;5113192;28;20436;-56
2023/05/20 09:40:27;;;;;;;1.40;1.20;;;19.50;99.90;;;;;;5105694;28;20510;-54
2023/05/20 09:43:01;;;;;;;1.70;1.50;;;19.50;99.90;;;;;;5091524;28;20433;-56
2023/05/20 09:45:28;;;;;;;3.10;1.40;;;19.60;99.90;;;;;;5092865;28;20428;-56
2023/05/20 09:47:56;;;;;;;1.60;1.20;;;19.80;99.90;;;;;;5106384;28;20723;-55
2023/05/20 09:50:24;;;;;;;1.90;1.20;;;19.80;99.90;;;;;;5099778;28;20426;-54
2023/05/20 09:52:53;;;;;;;1.90;1.30;;;19.90;99.90;;;;;;5107953;28;20436;-51
2023/05/20 09:55:21;;;;;;;2.28;1.20;;;19.90;99.90;;;;;;5110211;28;20446;-52
2023/05/20 09:57:49;;;;;;;1.70;1.20;;;19.90;99.90;;;;;;5109103;28;20424;-54
2023/05/20 10:00:18;;;;;;;1.40;1.10;;;20.00;99.90;;;;;;5111256;28;20440;-54
2023/05/20 10:02:47;;;;;;;1.50;1.20;;;20.40;99.90;;;;;;5110940;28;20432;-56
2023/05/20 10:05:18;;;;;;;1.40;1.20;;;20.60;99.90;;;;;;5104911;28;20444;-53
2023/05/20 10:08:11;;;;;;;1.90;1.30;;;20.80;99.90;;;;;;5103909;28;20526;-57
2023/05/20 10:10:47;;;;;;;1.90;1.30;;;20.90;99.90;;;;;;5111112;28;21053;-57
2023/05/20 10:13:24;;;;;;;1.95;1.17;;;21.20;99.90;;;;;;5104144;28;20432;-58
2023/05/20 10:16:01;;;;;;;1.50;1.20;;;21.50;99.90;;;;;;5104342;28;20502;-56
2023/05/20 10:18:44;;;;;;;1.60;1.40;;;21.80;99.90;;;;;;5104103;28;20428;-57
2023/05/20 10:21:23;;;;;;;2.45;1.40;;;22.20;99.90;;;;;;5110630;28;20432;-56
2023/05/20 10:23:50;;;;;;;1.90;1.20;;;22.60;99.90;;;;;;5104782;28;20460;-57
2023/05/20 10:26:18;;;;;;;1.60;1.20;;;22.70;99.90;;;;;;5104543;28;20443;-55
2023/05/20 10:28:46;;;;;;;1.35;1.10;;;22.80;99.90;;;;;;5107756;28;20467;-57
2023/05/20 10:31:20;;;;;;;2.05;1.10;;;22.90;99.90;;;;;;5113083;28;20432;-56
2023/05/20 10:33:49;;;;;;;1.50;1.20;;;23.10;99.90;;;;;;5113668;28;20924;-54
2023/05/20 10:36:27;;;;;;;2.00;1.20;;;23.30;99.90;;;;;;5111737;28;20443;-57
2023/05/20 10:38:55;;;;;;;1.67;1.33;;;23.20;99.90;;;;;;5111883;28;20483;-56
2023/05/20 10:41:25;;;;;;;1.85;1.20;;;23.10;99.90;;;;;;5112644;28;20793;-57
2023/05/20 10:44:02;;;;;;;2.28;1.00;;;23.00;99.90;;;;;;5109746;28;20886;-56
2023/05/20 10:46:31;;;;;;;2.30;1.20;;;22.70;99.90;;;;;;5103725;28;20456;-56
2023/05/20 10:48:58;;;;;;;1.70;1.10;;;22.60;99.90;;;;;;5102820;28;20429;-56
2023/05/20 10:51:30;;;;;;;1.65;1.15;;;23.00;99.90;;;;;;5109977;28;20438;-57
2023/05/20 10:53:58;;;;;;;1.30;1.10;;;23.60;99.90;;;;;;5113179;28;20474;-57
2023/05/20 10:56:26;;;;;;;1.40;1.10;;;24.00;99.90;;;;;;5115670;28;20866;-57
2023/05/20 10:58:56;;;;;;;1.48;1.20;;;23.50;99.90;;;;;;5101729;28;20438;-57
2023/05/20 11:01:25;;;;;;;1.50;1.10;;;23.50;99.90;;;;;;5114427;28;20522;-56
2023/05/20 11:03:55;;;;;;;1.73;1.20;;;23.50;99.90;;;;;;5117185;28;20432;-56
2023/05/20 11:06:27;;;;;;;1.60;1.10;;;23.80;99.90;;;;;;5116935;28;20432;-56
2023/05/20 11:08:54;;;;;;;1.60;1.30;;;24.00;99.90;;;;;;5114657;28;20863;-56
2023/05/20 11:11:23;;;;;;;1.70;1.20;;;24.50;99.90;;;;;;5117970;28;20534;-57
2023/05/20 11:13:52;;;;;;;1.30;1.10;;;24.70;99.90;;;;;;5117922;28;20424;-58
2023/05/20 11:16:21;;;;;;;1.58;1.20;;;25.10;99.90;;;;;;5114995;28;20800;-58
2023/05/20 11:18:49;;;;;;;1.40;1.10;;;24.90;99.90;;;;;;5109249;28;20463;-58
2023/05/20 11:21:19;;;;;;;1.37;1.20;;;24.50;99.90;;;;;;5132127;27;20505;-58
2023/05/20 11:23:46;;;;;;;1.30;1.05;;;24.40;99.90;;;;;;5137790;27;20426;-58
2023/05/20 11:26:13;;;;;;;1.23;1.00;;;24.00;99.90;;;;;;5120508;27;20721;-57
2023/05/20 11:28:40;;;;;;;1.95;1.10;;;23.90;99.90;;;;;;5114915;28;20847;-58
2023/05/20 11:31:08;;;;;;;1.20;1.00;;;24.20;99.90;;;;;;5115971;28;20845;-56
2023/05/20 11:33:35;;;;;;;1.85;1.10;;;24.40;99.90;;;;;;5114279;28;20488;-59
2023/05/20 11:36:03;;;;;;;1.30;1.10;;;24.60;99.90;;;;;;5111895;28;20441;-57
2023/05/20 11:38:32;;;;;;;1.25;1.00;;;25.10;99.90;;;;;;5114639;28;20802;-58
2023/05/20 11:40:59;;;;;;;1.20;1.00;;;25.30;99.90;;;;;;5116411;28;20904;-57
2023/05/20 11:43:26;;;;;;;1.20;1.10;;;25.00;99.90;;;;;;5113079;28;20886;-58
2023/05/20 11:45:54;;;;;;;1.30;1.05;;;24.30;99.90;;;;;;5114801;28;20555;-58
2023/05/20 11:48:21;;;;;;;1.20;0.90;;;23.80;99.90;;;;;;5115312;28;20458;-58
2023/05/20 11:50:49;;;;;;;1.30;1.10;;;23.60;99.90;;;;;;5110937;28;21367;-59
2023/05/20 11:53:17;;;;;;;1.30;1.13;;;23.50;99.90;;;;;;5102209;28;20441;-58
2023/05/20 11:55:50;;;;;;;1.92;1.10;;;23.50;99.90;;;;;;5109058;28;20489;-57
2023/05/20 11:58:19;;;;;;;1.80;1.60;;;23.60;99.90;;;;;;5105988;28;20529;-58
2023/05/20 12:00:47;;;;;;;1.45;1.05;;;23.70;99.90;;;;;;5111692;28;20848;-58
2023/05/20 12:03:14;;;;;;;1.30;1.20;;;23.80;99.90;;;;;;5106186;28;20436;-58
2023/05/20 12:05:41;;;;;;;1.27;1.00;;;23.90;99.90;;;;;;5110507;28;20424;-58
2023/05/20 12:08:08;;;;;;;1.92;1.13;;;23.90;99.90;;;;;;5113841;28;20427;-58
2023/05/20 12:10:36;;;;;;;1.40;1.00;;;23.60;99.90;;;;;;5114296;28;20416;-58
2023/05/20 12:13:07;;;;;;;1.10;1.00;;;23.60;99.90;;;;;;5110343;28;20526;-58
2023/05/20 12:15:35;;;;;;;1.20;1.10;;;23.90;99.90;;;;;;5110246;28;20443;-58
2023/05/20 12:18:03;;;;;;;1.20;1.00;;;24.60;99.90;;;;;;5113162;28;20463;-58
2023/05/20 12:20:32;;;;;;;1.40;1.10;;;25.10;99.90;;;;;;5107767;28;20481;-58
2023/05/20 12:23:00;;;;;;;1.27;0.93;;;25.10;99.90;;;;;;5111179;28;20847;-58
2023/05/20 12:25:27;;;;;;;1.50;1.00;;;25.50;99.90;;;;;;5099899;28;20434;-59
2023/05/20 12:27:54;;;;;;;1.48;1.20;;;26.00;99.90;;;;;;5099457;28;20505;-58
2023/05/20 12:30:23;;;;;;;1.10;1.00;;;26.20;99.90;;;;;;5107773;28;20428;-59
2023/05/20 12:32:52;;;;;;;2.60;1.02;;;26.40;99.90;;;;;;5095946;28;20456;-58
2023/05/20 12:35:35;;;;;;;1.10;0.90;;;26.80;99.90;;;;;;5097571;28;20456;-58
2023/05/20 12:38:03;;;;;;;1.63;1.03;;;26.70;99.60;;;;;;5113488;28;20419;-58
2023/05/20 12:40:30;;;;;;;1.17;1.00;;;26.50;99.50;;;;;;5114096;28;20439;-58
2023/05/20 12:42:57;;;;;;;1.90;1.00;;;26.00;99.90;;;;;;5111418;28;20553;-57
2023/05/20 12:45:26;;;;;;;1.20;1.00;;;26.00;99.90;;;;;;5114829;28;20444;-58
2023/05/20 12:47:54;;;;;;;1.20;1.00;;;25.70;99.90;;;;;;5113253;28;20431;-58
2023/05/20 12:50:21;;;;;;;1.25;1.08;;;25.80;99.80;;;;;;5115740;28;20420;-58
2023/05/20 12:52:48;;;;;;;1.60;0.90;;;26.00;99.30;;;;;;5106412;28;20728;-58